sensor_id;sensor_type;location;lat;lon;timestamp;pressure;altitude;pressure_sealevel;temperature;humidity
35918;BME280;22011;59.912;30.300;2023-05-19T00:02:27;102685.69;;;11.12;56.91
35918;BME280;22011;59.912;30.300;2023-05-19T00:04:59;102691.88;;;11.12;56.61
35918;BME280;22011;59.912;30.300;2023-05-19T00:07:30;102697.44;;;11.09;56.65
35918;BME280;22011;59.912;30.300;2023-05-19T00:09:58;102688.59;;;10.98;55.69
35918;BME280;22011;59.912;30.300;2023-05-19T00:12:28;102697.19;;;10.90;54.69
35918;BME280;22011;59.912;30.300;2023-05-19T00:14:55;102691.25;;;10.87;54.64
35918;BME280;22011;59.912;30.300;2023-05-19T00:17:23;102699.84;;;10.79;54.26
35918;BME280;22011;59.912;30.300;2023-05-19T00:19:51;102694.28;;;10.82;53.67
35918;BME280;22011;59.912;30.300;2023-05-19T00:22:19;102697.78;;;10.82;53.55
35918;BME280;22011;59.912;30.300;2023-05-19T00:24:47;102704.94;;;10.82;53.05
35918;BME280;22011;59.912;30.300;2023-05-19T00:27:14;102704.81;;;10.72;52.99
35918;BME280;22011;59.912;30.300;2023-05-19T00:29:43;102707.59;;;10.71;53.57
35918;BME280;22011;59.912;30.300;2023-05-19T00:32:10;102709.16;;;10.62;53.09
35918;BME280;22011;59.912;30.300;2023-05-19T00:34:38;102714.47;;;10.62;52.96
35918;BME280;22011;59.912;30.300;2023-05-19T00:37:05;102715.56;;;10.60;52.92
35918;BME280;22011;59.912;30.300;2023-05-19T00:39:33;102718.13;;;10.61;53.23
35918;BME280;22011;59.912;30.300;2023-05-19T00:42:01;102717.88;;;10.64;52.76
35918;BME280;22011;59.912;30.300;2023-05-19T00:44:29;102718.50;;;10.68;52.84
35918;BME280;22011;59.912;30.300;2023-05-19T00:46:57;102725.53;;;10.69;52.34
35918;BME280;22011;59.912;30.300;2023-05-19T00:49:25;102734.00;;;10.63;53.03
35918;BME280;22011;59.912;30.300;2023-05-19T00:51:52;102734.09;;;10.61;52.63
35918;BME280;22011;59.912;30.300;2023-05-19T00:54:20;102737.59;;;10.51;52.86
35918;BME280;22011;59.912;30.300;2023-05-19T00:56:48;102743.28;;;10.46;53.14
35918;BME280;22011;59.912;30.300;2023-05-19T00:59:16;102751.03;;;10.38;52.95
35918;BME280;22011;59.912;30.300;2023-05-19T01:01:43;102755.84;;;10.33;53.21
35918;BME280;22011;59.912;30.300;2023-05-19T01:04:17;102754.03;;;10.33;53.18
35918;BME280;22011;59.912;30.300;2023-05-19T01:06:46;102755.63;;;10.36;53.15
35918;BME280;22011;59.912;30.300;2023-05-19T01:09:14;102764.41;;;10.25;53.79
35918;BME280;22011;59.912;30.300;2023-05-19T01:11:42;102765.91;;;10.16;54.17
35918;BME280;22011;59.912;30.300;2023-05-19T01:14:09;102761.88;;;10.24;53.77
35918;BME280;22011;59.912;30.300;2023-05-19T01:16:39;102766.50;;;10.33;53.85
35918;BME280;22011;59.912;30.300;2023-05-19T01:19:17;102770.38;;;10.29;54.38
35918;BME280;22011;59.912;30.300;2023-05-19T01:22:05;102766.75;;;10.41;53.87
35918;BME280;22011;59.912;30.300;2023-05-19T01:28:02;102779.31;;;10.28;55.19
35918;BME280;22011;59.912;30.300;2023-05-19T01:30:36;102792.34;;;10.20;55.60
35918;BME280;22011;59.912;30.300;2023-05-19T01:33:06;102778.94;;;10.08;55.51
35918;BME280;22011;59.912;30.300;2023-05-19T01:35:36;102785.75;;;10.12;55.15
35918;BME280;22011;59.912;30.300;2023-05-19T01:38:05;102784.69;;;10.15;54.75
35918;BME280;22011;59.912;30.300;2023-05-19T01:40:34;102786.34;;;10.29;55.06
35918;BME280;22011;59.912;30.300;2023-05-19T01:43:03;102791.72;;;10.40;55.24
35918;BME280;22011;59.912;30.300;2023-05-19T01:45:33;102797.41;;;10.46;55.04
35918;BME280;22011;59.912;30.300;2023-05-19T01:48:02;102799.97;;;10.48;54.74
35918;BME280;22011;59.912;30.300;2023-05-19T01:50:31;102798.88;;;10.39;54.66
35918;BME280;22011;59.912;30.300;2023-05-19T01:52:59;102805.50;;;10.34;54.22
35918;BME280;22011;59.912;30.300;2023-05-19T01:55:26;102804.25;;;10.27;53.71
35918;BME280;22011;59.912;30.300;2023-05-19T01:58:01;102803.81;;;10.33;54.03
35918;BME280;22011;59.912;30.300;2023-05-19T02:00:44;102812.06;;;10.41;53.70
35918;BME280;22011;59.912;30.300;2023-05-19T02:03:26;102809.78;;;10.47;53.88
35918;BME280;22011;59.912;30.300;2023-05-19T02:06:02;102810.97;;;10.43;53.01
35918;BME280;22011;59.912;30.300;2023-05-19T02:08:41;102815.00;;;10.49;53.43
35918;BME280;22011;59.912;30.300;2023-05-19T02:11:13;102820.78;;;10.43;52.72
35918;BME280;22011;59.912;30.300;2023-05-19T02:13:49;102818.94;;;10.32;53.15
35918;BME280;22011;59.912;30.300;2023-05-19T02:16:19;102812.13;;;10.28;53.30
35918;BME280;22011;59.912;30.300;2023-05-19T02:18:49;102815.88;;;10.26;52.96
35918;BME280;22011;59.912;30.300;2023-05-19T02:21:18;102819.00;;;10.20;53.15
35918;BME280;22011;59.912;30.300;2023-05-19T02:23:46;102823.25;;;10.09;53.10
35918;BME280;22011;59.912;30.300;2023-05-19T02:26:13;102819.63;;;10.10;53.15
35918;BME280;22011;59.912;30.300;2023-05-19T02:28:41;102820.88;;;10.18;53.16
35918;BME280;22011;59.912;30.300;2023-05-19T02:31:08;102823.44;;;10.19;53.30
35918;BME280;22011;59.912;30.300;2023-05-19T02:33:37;102820.47;;;10.24;53.00
35918;BME280;22011;59.912;30.300;2023-05-19T02:36:05;102826.88;;;10.21;53.32
35918;BME280;22011;59.912;30.300;2023-05-19T02:38:33;102817.50;;;10.15;54.07
35918;BME280;22011;59.912;30.300;2023-05-19T02:41:01;102825.47;;;10.15;53.91
35918;BME280;22011;59.912;30.300;2023-05-19T02:43:28;102818.34;;;10.16;53.50
35918;BME280;22011;59.912;30.300;2023-05-19T02:45:57;102825.81;;;10.24;54.22
35918;BME280;22011;59.912;30.300;2023-05-19T02:48:26;102830.69;;;10.30;53.79
35918;BME280;22011;59.912;30.300;2023-05-19T02:50:54;102832.38;;;10.31;53.62
35918;BME280;22011;59.912;30.300;2023-05-19T02:53:22;102830.16;;;10.25;52.79
35918;BME280;22011;59.912;30.300;2023-05-19T02:55:49;102827.41;;;10.26;53.14
35918;BME280;22011;59.912;30.300;2023-05-19T02:58:17;102826.81;;;10.34;52.87
35918;BME280;22011;59.912;30.300;2023-05-19T03:00:45;102828.03;;;10.41;52.64
35918;BME280;22011;59.912;30.300;2023-05-19T03:03:13;102833.63;;;10.38;52.59
35918;BME280;22011;59.912;30.300;2023-05-19T03:05:40;102837.25;;;10.37;52.57
35918;BME280;22011;59.912;30.300;2023-05-19T03:08:09;102839.31;;;10.44;52.71
35918;BME280;22011;59.912;30.300;2023-05-19T03:10:37;102833.16;;;10.44;52.04
35918;BME280;22011;59.912;30.300;2023-05-19T03:13:04;102838.25;;;10.47;51.60
35918;BME280;22011;59.912;30.300;2023-05-19T03:15:31;102840.06;;;10.46;51.91
35918;BME280;22011;59.912;30.300;2023-05-19T03:17:59;102840.56;;;10.52;51.80
35918;BME280;22011;59.912;30.300;2023-05-19T03:20:26;102843.25;;;10.52;51.44
35918;BME280;22011;59.912;30.300;2023-05-19T03:22:55;102844.38;;;10.60;50.71
35918;BME280;22011;59.912;30.300;2023-05-19T03:25:24;102852.41;;;10.71;50.61
35918;BME280;22011;59.912;30.300;2023-05-19T03:27:52;102852.53;;;10.70;50.60
35918;BME280;22011;59.912;30.300;2023-05-19T03:30:20;102856.16;;;10.69;50.42
35918;BME280;22011;59.912;30.300;2023-05-19T03:33:05;102850.72;;;10.70;49.36
35918;BME280;22011;59.912;30.300;2023-05-19T03:35:32;102856.03;;;10.70;49.35
35918;BME280;22011;59.912;30.300;2023-05-19T03:38:00;102861.03;;;10.75;49.12
35918;BME280;22011;59.912;30.300;2023-05-19T03:40:29;102865.75;;;10.71;48.50
35918;BME280;22011;59.912;30.300;2023-05-19T03:43:04;102870.09;;;10.72;48.37
35918;BME280;22011;59.912;30.300;2023-05-19T03:45:38;102868.63;;;10.68;48.06
35918;BME280;22011;59.912;30.300;2023-05-19T03:48:24;102870.97;;;10.73;48.07
35918;BME280;22011;59.912;30.300;2023-05-19T03:51:22;102872.81;;;10.84;48.14
35918;BME280;22011;59.912;30.300;2023-05-19T03:53:52;102871.75;;;10.86;48.27
35918;BME280;22011;59.912;30.300;2023-05-19T03:56:21;102878.09;;;10.96;48.11
35918;BME280;22011;59.912;30.300;2023-05-19T03:58:51;102887.66;;;10.99;48.00
35918;BME280;22011;59.912;30.300;2023-05-19T04:01:20;102891.41;;;10.96;48.67
35918;BME280;22011;59.912;30.300;2023-05-19T04:03:47;102890.34;;;10.99;48.36
35918;BME280;22011;59.912;30.300;2023-05-19T04:06:15;102895.22;;;11.05;48.62
35918;BME280;22011;59.912;30.300;2023-05-19T04:08:42;102894.25;;;11.06;48.64
35918;BME280;22011;59.912;30.300;2023-05-19T04:11:10;102894.19;;;10.95;49.30
35918;BME280;22011;59.912;30.300;2023-05-19T04:13:39;102898.38;;;11.10;49.04
35918;BME280;22011;59.912;30.300;2023-05-19T04:16:07;102901.63;;;11.02;48.78
35918;BME280;22011;59.912;30.300;2023-05-19T04:18:34;102901.63;;;11.02;49.18
35918;BME280;22011;59.912;30.300;2023-05-19T04:21:03;102900.94;;;11.11;49.47
35918;BME280;22011;59.912;30.300;2023-05-19T04:23:33;102894.78;;;11.22;49.17
35918;BME280;22011;59.912;30.300;2023-05-19T04:26:01;102907.16;;;11.23;48.93
35918;BME280;22011;59.912;30.300;2023-05-19T04:28:28;102909.31;;;11.18;49.27
35918;BME280;22011;59.912;30.300;2023-05-19T04:30:57;102909.69;;;11.25;49.00
35918;BME280;22011;59.912;30.300;2023-05-19T04:33:25;102903.16;;;11.29;49.07
35918;BME280;22011;59.912;30.300;2023-05-19T04:35:54;102908.16;;;11.33;48.49
35918;BME280;22011;59.912;30.300;2023-05-19T04:38:22;102904.28;;;11.37;48.74
35918;BME280;22011;59.912;30.300;2023-05-19T04:40:51;102898.91;;;11.48;48.02
35918;BME280;22011;59.912;30.300;2023-05-19T04:43:18;102892.38;;;11.53;48.32
35918;BME280;22011;59.912;30.300;2023-05-19T04:45:47;102911.09;;;11.64;47.21
35918;BME280;22011;59.912;30.300;2023-05-19T04:48:18;102910.97;;;11.76;46.98
35918;BME280;22011;59.912;30.300;2023-05-19T04:50:46;102908.81;;;11.82;46.94
35918;BME280;22011;59.912;30.300;2023-05-19T04:53:15;102900.53;;;11.73;47.17
35918;BME280;22011;59.912;30.300;2023-05-19T04:55:43;102904.06;;;11.74;47.17
35918;BME280;22011;59.912;30.300;2023-05-19T04:58:11;102906.09;;;11.70;46.88
35918;BME280;22011;59.912;30.300;2023-05-19T05:00:38;102907.72;;;11.84;46.68
35918;BME280;22011;59.912;30.300;2023-05-19T05:03:07;102905.06;;;11.95;46.44
35918;BME280;22011;59.912;30.300;2023-05-19T05:05:37;102899.94;;;12.03;46.70
35918;BME280;22011;59.912;30.300;2023-05-19T05:08:04;102910.88;;;12.00;46.12
35918;BME280;22011;59.912;30.300;2023-05-19T05:10:37;102911.25;;;11.96;46.52
35918;BME280;22011;59.912;30.300;2023-05-19T05:13:05;102917.69;;;12.16;46.14
35918;BME280;22011;59.912;30.300;2023-05-19T05:15:33;102911.59;;;12.25;44.94
35918;BME280;22011;59.912;30.300;2023-05-19T05:18:02;102910.84;;;12.34;44.81
35918;BME280;22011;59.912;30.300;2023-05-19T05:20:31;102906.34;;;12.46;44.82
35918;BME280;22011;59.912;30.300;2023-05-19T05:23:01;102911.03;;;12.53;44.38
35918;BME280;22011;59.912;30.300;2023-05-19T05:25:31;102910.94;;;12.43;44.09
35918;BME280;22011;59.912;30.300;2023-05-19T05:27:58;102911.56;;;12.47;43.30
35918;BME280;22011;59.912;30.300;2023-05-19T05:30:30;102913.09;;;12.50;43.17
35918;BME280;22011;59.912;30.300;2023-05-19T05:32:57;102911.03;;;12.53;43.63
35918;BME280;22011;59.912;30.300;2023-05-19T05:35:32;102909.41;;;12.62;42.83
35918;BME280;22011;59.912;30.300;2023-05-19T05:38:01;102922.50;;;12.76;42.28
35918;BME280;22011;59.912;30.300;2023-05-19T05:40:29;102918.50;;;12.70;43.09
35918;BME280;22011;59.912;30.300;2023-05-19T05:42:57;102912.59;;;12.88;42.50
35918;BME280;22011;59.912;30.300;2023-05-19T05:45:27;102927.44;;;12.92;42.22
35918;BME280;22011;59.912;30.300;2023-05-19T05:47:56;102928.19;;;12.83;42.13
35918;BME280;22011;59.912;30.300;2023-05-19T05:50:25;102931.63;;;12.73;42.10
35918;BME280;22011;59.912;30.300;2023-05-19T05:52:54;102931.06;;;12.59;43.20
35918;BME280;22011;59.912;30.300;2023-05-19T05:55:27;102930.31;;;12.68;43.19
35918;BME280;22011;59.912;30.300;2023-05-19T05:57:55;102928.44;;;12.80;42.86
35918;BME280;22011;59.912;30.300;2023-05-19T06:00:23;102933.28;;;12.86;42.88
35918;BME280;22011;59.912;30.300;2023-05-19T06:02:53;102937.88;;;12.95;42.79
35918;BME280;22011;59.912;30.300;2023-05-19T06:05:22;102936.00;;;13.06;42.44
35918;BME280;22011;59.912;30.300;2023-05-19T06:07:50;102938.09;;;13.03;42.98
35918;BME280;22011;59.912;30.300;2023-05-19T06:10:22;102936.59;;;13.10;42.79
35918;BME280;22011;59.912;30.300;2023-05-19T06:12:51;102933.72;;;13.02;43.10
35918;BME280;22011;59.912;30.300;2023-05-19T06:15:20;102944.75;;;13.40;43.38
35918;BME280;22011;59.912;30.300;2023-05-19T06:17:58;102944.94;;;13.28;42.83
35918;BME280;22011;59.912;30.300;2023-05-19T06:20:25;102945.47;;;13.43;42.54
35918;BME280;22011;59.912;30.300;2023-05-19T06:22:53;102944.38;;;13.55;42.48
35918;BME280;22011;59.912;30.300;2023-05-19T06:25:23;102947.63;;;13.49;42.33
35918;BME280;22011;59.912;30.300;2023-05-19T06:27:52;102958.34;;;13.49;42.94
35918;BME280;22011;59.912;30.300;2023-05-19T06:30:21;102951.47;;;13.35;42.70
35918;BME280;22011;59.912;30.300;2023-05-19T06:33:01;102954.59;;;13.40;42.76
35918;BME280;22011;59.912;30.300;2023-05-19T06:35:29;102953.75;;;13.39;42.97
35918;BME280;22011;59.912;30.300;2023-05-19T06:37:56;102959.81;;;13.21;42.47
35918;BME280;22011;59.912;30.300;2023-05-19T06:40:24;102962.44;;;13.00;42.55
35918;BME280;22011;59.912;30.300;2023-05-19T06:42:54;102956.22;;;12.99;42.85
35918;BME280;22011;59.912;30.300;2023-05-19T06:45:32;102955.34;;;13.10;42.31
35918;BME280;22011;59.912;30.300;2023-05-19T06:48:02;102964.41;;;13.30;41.94
35918;BME280;22011;59.912;30.300;2023-05-19T06:50:30;102948.50;;;13.59;42.00
35918;BME280;22011;59.912;30.300;2023-05-19T06:52:57;102934.44;;;13.66;41.04
35918;BME280;22011;59.912;30.300;2023-05-19T06:55:25;102942.19;;;13.90;41.15
35918;BME280;22011;59.912;30.300;2023-05-19T06:57:54;102947.81;;;14.18;40.24
35918;BME280;22011;59.912;30.300;2023-05-19T07:00:22;102942.63;;;14.26;39.84
35918;BME280;22011;59.912;30.300;2023-05-19T07:02:51;102941.78;;;14.25;40.09
35918;BME280;22011;59.912;30.300;2023-05-19T07:05:19;102947.53;;;14.51;39.49
35918;BME280;22011;59.912;30.300;2023-05-19T07:07:51;102946.09;;;14.57;39.58
35918;BME280;22011;59.912;30.300;2023-05-19T07:10:23;102947.91;;;14.56;38.89
35918;BME280;22011;59.912;30.300;2023-05-19T07:12:51;102948.94;;;14.55;39.38
35918;BME280;22011;59.912;30.300;2023-05-19T07:15:23;102947.78;;;14.58;39.44
35918;BME280;22011;59.912;30.300;2023-05-19T07:17:51;102947.66;;;14.59;38.69
35918;BME280;22011;59.912;30.300;2023-05-19T07:20:18;102941.31;;;14.89;38.51
35918;BME280;22011;59.912;30.300;2023-05-19T07:22:46;102942.47;;;15.06;37.93
35918;BME280;22011;59.912;30.300;2023-05-19T07:25:14;102946.69;;;14.99;38.25
35918;BME280;22011;59.912;30.300;2023-05-19T07:27:45;102939.88;;;14.66;38.78
35918;BME280;22011;59.912;30.300;2023-05-19T07:30:13;102946.78;;;14.59;38.99
35918;BME280;22011;59.912;30.300;2023-05-19T07:32:42;102951.44;;;14.57;41.06
35918;BME280;22011;59.912;30.300;2023-05-19T07:35:09;102949.22;;;14.52;40.83
35918;BME280;22011;59.912;30.300;2023-05-19T07:37:36;102956.28;;;14.53;41.68
35918;BME280;22011;59.912;30.300;2023-05-19T07:40:05;102956.13;;;14.64;41.00
35918;BME280;22011;59.912;30.300;2023-05-19T07:42:33;102946.81;;;14.68;41.28
35918;BME280;22011;59.912;30.300;2023-05-19T07:45:00;102953.34;;;14.95;40.97
35918;BME280;22011;59.912;30.300;2023-05-19T07:47:28;102955.47;;;15.20;40.18
35918;BME280;22011;59.912;30.300;2023-05-19T07:49:57;102963.22;;;15.33;40.15
35918;BME280;22011;59.912;30.300;2023-05-19T07:52:25;102953.75;;;15.38;39.49
35918;BME280;22011;59.912;30.300;2023-05-19T07:54:52;102956.41;;;15.48;39.70
35918;BME280;22011;59.912;30.300;2023-05-19T07:57:20;102955.16;;;15.52;39.91
35918;BME280;22011;59.912;30.300;2023-05-19T07:59:47;102955.69;;;15.65;40.00
35918;BME280;22011;59.912;30.300;2023-05-19T08:02:14;102951.63;;;15.98;39.64
35918;BME280;22011;59.912;30.300;2023-05-19T08:04:42;102947.28;;;15.88;39.69
35918;BME280;22011;59.912;30.300;2023-05-19T08:07:11;102953.69;;;15.77;40.17
35918;BME280;22011;59.912;30.300;2023-05-19T08:09:38;102962.09;;;15.45;39.81
35918;BME280;22011;59.912;30.300;2023-05-19T08:12:06;102958.44;;;15.17;40.29
35918;BME280;22011;59.912;30.300;2023-05-19T08:14:33;102960.84;;;15.11;40.72
35918;BME280;22011;59.912;30.300;2023-05-19T08:17:01;102969.88;;;15.19;41.17
35918;BME280;22011;59.912;30.300;2023-05-19T08:19:28;102962.25;;;15.24;40.67
35918;BME280;22011;59.912;30.300;2023-05-19T08:21:56;102958.56;;;15.35;40.30
35918;BME280;22011;59.912;30.300;2023-05-19T08:24:27;102964.38;;;15.30;40.80
35918;BME280;22011;59.912;30.300;2023-05-19T08:26:55;102965.06;;;15.13;41.04
35918;BME280;22011;59.912;30.300;2023-05-19T08:29:22;102969.59;;;15.22;40.91
35918;BME280;22011;59.912;30.300;2023-05-19T08:31:50;102966.75;;;15.33;39.99
35918;BME280;22011;59.912;30.300;2023-05-19T08:34:18;102974.66;;;15.45;39.84
35918;BME280;22011;59.912;30.300;2023-05-19T08:36:45;102972.97;;;15.44;39.92
35918;BME280;22011;59.912;30.300;2023-05-19T08:39:13;102967.88;;;15.41;39.94
35918;BME280;22011;59.912;30.300;2023-05-19T08:41:45;102973.19;;;15.79;40.57
35918;BME280;22011;59.912;30.300;2023-05-19T08:44:12;102964.66;;;15.93;41.74
35918;BME280;22011;59.912;30.300;2023-05-19T08:46:40;102984.34;;;15.84;41.03
35918;BME280;22011;59.912;30.300;2023-05-19T08:49:11;102968.63;;;15.89;41.43
35918;BME280;22011;59.912;30.300;2023-05-19T08:51:45;102969.03;;;15.94;42.98
35918;BME280;22011;59.912;30.300;2023-05-19T08:54:16;102980.13;;;15.72;41.55
35918;BME280;22011;59.912;30.300;2023-05-19T08:56:46;102973.22;;;15.69;42.65
35918;BME280;22011;59.912;30.300;2023-05-19T08:59:13;102972.06;;;15.72;42.76
35918;BME280;22011;59.912;30.300;2023-05-19T09:01:43;102982.00;;;15.62;42.79
35918;BME280;22011;59.912;30.300;2023-05-19T09:04:11;102984.53;;;15.73;42.81
35918;BME280;22011;59.912;30.300;2023-05-19T09:06:39;102987.38;;;15.52;43.02
35918;BME280;22011;59.912;30.300;2023-05-19T09:09:07;102986.81;;;15.49;43.16
35918;BME280;22011;59.912;30.300;2023-05-19T09:11:35;102982.56;;;15.56;43.36
35918;BME280;22011;59.912;30.300;2023-05-19T09:14:04;102984.81;;;15.70;42.81
35918;BME280;22011;59.912;30.300;2023-05-19T09:16:32;102986.50;;;15.71;42.08
35918;BME280;22011;59.912;30.300;2023-05-19T09:18:59;102990.03;;;15.72;41.24
35918;BME280;22011;59.912;30.300;2023-05-19T09:21:27;102979.84;;;15.75;40.66
35918;BME280;22011;59.912;30.300;2023-05-19T09:23:56;102973.88;;;15.91;40.47
35918;BME280;22011;59.912;30.300;2023-05-19T09:26:24;102976.13;;;15.95;41.18
35918;BME280;22011;59.912;30.300;2023-05-19T09:29:11;102974.91;;;16.17;41.13
35918;BME280;22011;59.912;30.300;2023-05-19T09:31:38;102971.44;;;15.97;40.01
35918;BME280;22011;59.912;30.300;2023-05-19T09:34:11;102967.94;;;16.24;40.42
35918;BME280;22011;59.912;30.300;2023-05-19T09:36:39;102980.94;;;16.29;40.09
35918;BME280;22011;59.912;30.300;2023-05-19T09:39:14;102972.47;;;16.51;40.83
35918;BME280;22011;59.912;30.300;2023-05-19T09:41:41;102970.47;;;16.26;40.42
35918;BME280;22011;59.912;30.300;2023-05-19T09:44:13;102967.22;;;16.50;40.67
35918;BME280;22011;59.912;30.300;2023-05-19T09:46:47;102965.03;;;16.35;40.09
35918;BME280;22011;59.912;30.300;2023-05-19T09:49:19;102965.69;;;16.47;40.20
35918;BME280;22011;59.912;30.300;2023-05-19T09:51:53;102955.63;;;16.49;40.02
35918;BME280;22011;59.912;30.300;2023-05-19T09:54:21;102954.03;;;16.56;39.64
35918;BME280;22011;59.912;30.300;2023-05-19T09:56:56;102969.75;;;16.79;39.61
35918;BME280;22011;59.912;30.300;2023-05-19T09:59:27;102960.72;;;16.70;39.96
35918;BME280;22011;59.912;30.300;2023-05-19T10:01:56;102971.66;;;16.68;39.78
35918;BME280;22011;59.912;30.300;2023-05-19T10:04:24;102958.59;;;16.74;39.57
35918;BME280;22011;59.912;30.300;2023-05-19T10:06:53;102969.66;;;16.71;39.89
35918;BME280;22011;59.912;30.300;2023-05-19T10:09:25;102958.88;;;16.71;39.71
35918;BME280;22011;59.912;30.300;2023-05-19T10:11:54;102951.50;;;16.73;39.34
35918;BME280;22011;59.912;30.300;2023-05-19T10:14:23;102955.66;;;16.85;39.14
35918;BME280;22011;59.912;30.300;2023-05-19T10:16:53;102958.66;;;16.82;39.36
35918;BME280;22011;59.912;30.300;2023-05-19T10:19:22;102964.41;;;16.69;39.18
35918;BME280;22011;59.912;30.300;2023-05-19T10:21:51;102956.59;;;16.76;38.97
35918;BME280;22011;59.912;30.300;2023-05-19T10:24:19;102950.19;;;16.77;39.52
35918;BME280;22011;59.912;30.300;2023-05-19T10:26:51;102956.13;;;16.98;39.58
35918;BME280;22011;59.912;30.300;2023-05-19T10:29:25;102960.38;;;17.00;39.96
35918;BME280;22011;59.912;30.300;2023-05-19T10:31:57;102957.75;;;16.91;40.03
35918;BME280;22011;59.912;30.300;2023-05-19T10:37:27;102959.97;;;16.95;40.17
35918;BME280;22011;59.912;30.300;2023-05-19T10:39:56;102959.88;;;16.70;40.28
35918;BME280;22011;59.912;30.300;2023-05-19T10:42:30;102952.34;;;16.73;41.44
35918;BME280;22011;59.912;30.300;2023-05-19T10:45:04;102952.25;;;16.65;41.40
35918;BME280;22011;59.912;30.300;2023-05-19T10:47:39;102957.81;;;16.63;41.23
35918;BME280;22011;59.912;30.300;2023-05-19T10:50:07;102953.31;;;16.54;40.87
35918;BME280;22011;59.912;30.300;2023-05-19T10:52:36;102955.81;;;16.65;42.00
35918;BME280;22011;59.912;30.300;2023-05-19T10:55:06;102957.81;;;16.63;41.19
35918;BME280;22011;59.912;30.300;2023-05-19T10:57:35;102960.09;;;16.58;41.01
35918;BME280;22011;59.912;30.300;2023-05-19T11:00:03;102961.09;;;16.57;40.56
35918;BME280;22011;59.912;30.300;2023-05-19T11:02:38;102961.44;;;16.72;39.74
35918;BME280;22011;59.912;30.300;2023-05-19T11:05:08;102959.34;;;16.66;39.97
35918;BME280;22011;59.912;30.300;2023-05-19T11:07:36;102959.97;;;16.78;40.16
35918;BME280;22011;59.912;30.300;2023-05-19T11:10:07;102958.94;;;16.61;40.44
35918;BME280;22011;59.912;30.300;2023-05-19T11:12:44;102964.00;;;16.64;40.85
35918;BME280;22011;59.912;30.300;2023-05-19T11:15:14;102963.59;;;16.41;41.26
35918;BME280;22011;59.912;30.300;2023-05-19T11:17:45;102975.47;;;16.48;41.28
35918;BME280;22011;59.912;30.300;2023-05-19T11:20:21;102971.09;;;16.65;41.28
35918;BME280;22011;59.912;30.300;2023-05-19T11:23:05;102960.81;;;16.78;40.80
35918;BME280;22011;59.912;30.300;2023-05-19T11:25:43;102954.50;;;16.87;40.64
35918;BME280;22011;59.912;30.300;2023-05-19T11:28:12;102972.44;;;16.79;39.19
35918;BME280;22011;59.912;30.300;2023-05-19T11:30:43;102962.44;;;16.89;39.29
35918;BME280;22011;59.912;30.300;2023-05-19T11:33:12;102965.28;;;16.87;39.94
35918;BME280;22011;59.912;30.300;2023-05-19T11:35:40;102975.50;;;16.84;40.59
35918;BME280;22011;59.912;30.300;2023-05-19T11:38:09;102970.50;;;16.71;41.20
35918;BME280;22011;59.912;30.300;2023-05-19T11:40:38;102970.03;;;16.76;41.42
35918;BME280;22011;59.912;30.300;2023-05-19T11:43:05;102961.88;;;16.67;42.00
35918;BME280;22011;59.912;30.300;2023-05-19T11:45:33;102961.19;;;16.65;41.99
35918;BME280;22011;59.912;30.300;2023-05-19T11:48:00;102950.63;;;16.54;42.62
35918;BME280;22011;59.912;30.300;2023-05-19T11:50:31;102958.63;;;16.64;43.49
35918;BME280;22011;59.912;30.300;2023-05-19T11:52:59;102952.13;;;16.66;42.62
35918;BME280;22011;59.912;30.300;2023-05-19T11:55:27;102959.25;;;16.58;42.88
35918;BME280;22011;59.912;30.300;2023-05-19T11:57:58;102964.56;;;16.67;42.69
35918;BME280;22011;59.912;30.300;2023-05-19T12:00:26;102959.72;;;16.53;42.53
35918;BME280;22011;59.912;30.300;2023-05-19T12:02:53;102968.38;;;16.47;42.85
35918;BME280;22011;59.912;30.300;2023-05-19T12:05:22;102967.69;;;16.45;42.59
35918;BME280;22011;59.912;30.300;2023-05-19T12:07:51;102956.47;;;16.50;42.17
35918;BME280;22011;59.912;30.300;2023-05-19T12:10:21;102961.22;;;16.38;42.41
35918;BME280;22011;59.912;30.300;2023-05-19T12:12:49;102943.06;;;16.40;43.25
35918;BME280;22011;59.912;30.300;2023-05-19T12:15:18;102955.72;;;16.30;43.14
35918;BME280;22011;59.912;30.300;2023-05-19T12:17:48;102952.69;;;16.43;42.73
35918;BME280;22011;59.912;30.300;2023-05-19T12:20:16;102959.31;;;16.48;42.29
35918;BME280;22011;59.912;30.300;2023-05-19T12:22:44;102954.53;;;16.42;42.51
35918;BME280;22011;59.912;30.300;2023-05-19T12:25:14;102954.78;;;16.49;42.36
35918;BME280;22011;59.912;30.300;2023-05-19T12:27:42;102945.72;;;16.50;41.82
35918;BME280;22011;59.912;30.300;2023-05-19T12:30:11;102952.47;;;16.54;42.31
35918;BME280;22011;59.912;30.300;2023-05-19T12:32:38;102955.03;;;16.55;41.83
35918;BME280;22011;59.912;30.300;2023-05-19T12:35:06;102954.31;;;16.53;42.25
35918;BME280;22011;59.912;30.300;2023-05-19T12:37:35;102961.50;;;16.62;41.99
35918;BME280;22011;59.912;30.300;2023-05-19T12:40:04;102964.00;;;16.64;41.51
35918;BME280;22011;59.912;30.300;2023-05-19T12:42:33;102964.41;;;16.51;40.85
35918;BME280;22011;59.912;30.300;2023-05-19T12:45:02;102958.06;;;16.43;41.17
35918;BME280;22011;59.912;30.300;2023-05-19T12:47:31;102969.97;;;16.40;41.18
35918;BME280;22011;59.912;30.300;2023-05-19T12:50:01;102976.06;;;16.42;41.36
35918;BME280;22011;59.912;30.300;2023-05-19T12:52:29;102969.53;;;16.45;41.19
35918;BME280;22011;59.912;30.300;2023-05-19T12:54:57;102967.44;;;16.39;40.91
35918;BME280;22011;59.912;30.300;2023-05-19T12:57:26;102966.28;;;16.41;40.82
35918;BME280;22011;59.912;30.300;2023-05-19T13:00:01;102959.84;;;16.52;41.35